Terminal Aerodrome Forecast
Issued by NWS Tulsa, OK

Current Version | Previous Version | Text Only | Print | Product List | Glossary On
Versions: 1 2 3 4 5 6 7 8 9 10 11 12 13 14
000
FTUS44 KTSA 220500
TAFTUL
TAF
KTUL 220520Z 2206/2306 17012KT P6SM SKC
     FM221500 19014G23KT P6SM FEW250
     FM230000 17012KT P6SM SKC=

USA.gov is the U.S. government's official web portal to all federal, state and local government web resources and services.